sensor_id;sensor_type;location;lat;lon;timestamp;temperature;humidity
7762;DHT22;3925;48.636;9.516;2022-10-26T00:00:44;12.80;99.90
7762;DHT22;3925;48.636;9.516;2022-10-26T00:03:11;12.70;99.90
7762;DHT22;3925;48.636;9.516;2022-10-26T00:05:38;12.60;99.90
7762;DHT22;3925;48.636;9.516;2022-10-26T00:08:05;12.80;99.90
7762;DHT22;3925;48.636;9.516;2022-10-26T00:10:33;13.00;99.90
7762;DHT22;3925;48.636;9.516;2022-10-26T00:13:00;13.00;99.90
7762;DHT22;3925;48.636;9.516;2022-10-26T00:15:29;13.00;99.90
7762;DHT22;3925;48.636;9.516;2022-10-26T00:17:56;13.00;99.90
7762;DHT22;3925;48.636;9.516;2022-10-26T00:20:23;13.00;99.90
7762;DHT22;3925;48.636;9.516;2022-10-26T00:22:49;13.00;99.90
7762;DHT22;3925;48.636;9.516;2022-10-26T00:25:16;13.10;99.90
7762;DHT22;3925;48.636;9.516;2022-10-26T00:27:43;13.10;99.90
7762;DHT22;3925;48.636;9.516;2022-10-26T00:30:10;13.20;99.90
7762;DHT22;3925;48.636;9.516;2022-10-26T00:32:38;13.40;99.90
7762;DHT22;3925;48.636;9.516;2022-10-26T00:35:05;13.40;99.90
7762;DHT22;3925;48.636;9.516;2022-10-26T00:37:32;13.30;99.90
7762;DHT22;3925;48.636;9.516;2022-10-26T00:39:59;13.30;99.90
7762;DHT22;3925;48.636;9.516;2022-10-26T00:42:26;13.30;99.90
7762;DHT22;3925;48.636;9.516;2022-10-26T00:45:03;13.30;99.90
7762;DHT22;3925;48.636;9.516;2022-10-26T00:47:35;13.30;99.90
7762;DHT22;3925;48.636;9.516;2022-10-26T00:50:09;13.20;99.90
7762;DHT22;3925;48.636;9.516;2022-10-26T00:52:36;13.20;99.90
7762;DHT22;3925;48.636;9.516;2022-10-26T00:55:05;13.30;99.90
7762;DHT22;3925;48.636;9.516;2022-10-26T00:57:33;13.30;99.90
7762;DHT22;3925;48.636;9.516;2022-10-26T01:00:01;13.30;99.90
7762;DHT22;3925;48.636;9.516;2022-10-26T01:02:27;13.30;99.90
7762;DHT22;3925;48.636;9.516;2022-10-26T01:04:55;13.30;99.90
7762;DHT22;3925;48.636;9.516;2022-10-26T01:07:24;13.30;99.90
7762;DHT22;3925;48.636;9.516;2022-10-26T01:09:52;13.30;99.90
7762;DHT22;3925;48.636;9.516;2022-10-26T01:12:20;13.20;99.90
7762;DHT22;3925;48.636;9.516;2022-10-26T01:14:47;13.20;99.90
7762;DHT22;3925;48.636;9.516;2022-10-26T01:17:24;13.40;99.90
7762;DHT22;3925;48.636;9.516;2022-10-26T01:23:02;13.40;99.90
7762;DHT22;3925;48.636;9.516;2022-10-26T01:25:45;13.40;99.90
7762;DHT22;3925;48.636;9.516;2022-10-26T01:28:23;13.40;99.90
7762;DHT22;3925;48.636;9.516;2022-10-26T01:31:00;13.30;99.90
7762;DHT22;3925;48.636;9.516;2022-10-26T01:33:35;13.30;99.90
7762;DHT22;3925;48.636;9.516;2022-10-26T01:36:10;13.30;99.90
7762;DHT22;3925;48.636;9.516;2022-10-26T01:38:50;13.30;99.90
7762;DHT22;3925;48.636;9.516;2022-10-26T01:41:24;13.20;99.90
7762;DHT22;3925;48.636;9.516;2022-10-26T01:43:55;13.00;99.90
7762;DHT22;3925;48.636;9.516;2022-10-26T01:46:26;13.10;99.90
7762;DHT22;3925;48.636;9.516;2022-10-26T01:48:58;13.00;99.90
7762;DHT22;3925;48.636;9.516;2022-10-26T01:51:27;13.00;99.90
7762;DHT22;3925;48.636;9.516;2022-10-26T01:53:57;13.00;99.90
7762;DHT22;3925;48.636;9.516;2022-10-26T01:56:25;13.00;99.90
7762;DHT22;3925;48.636;9.516;2022-10-26T01:59:17;13.10;99.90
7762;DHT22;3925;48.636;9.516;2022-10-26T02:02:03;13.00;99.90
7762;DHT22;3925;48.636;9.516;2022-10-26T02:04:40;13.00;99.90
7762;DHT22;3925;48.636;9.516;2022-10-26T02:07:15;12.90;99.90
7762;DHT22;3925;48.636;9.516;2022-10-26T02:09:54;12.80;99.90
7762;DHT22;3925;48.636;9.516;2022-10-26T02:12:32;12.80;99.90
7762;DHT22;3925;48.636;9.516;2022-10-26T02:15:05;12.90;99.90
7762;DHT22;3925;48.636;9.516;2022-10-26T02:17:41;12.90;99.90
7762;DHT22;3925;48.636;9.516;2022-10-26T02:20:14;13.10;99.90
7762;DHT22;3925;48.636;9.516;2022-10-26T02:22:46;13.10;99.90
7762;DHT22;3925;48.636;9.516;2022-10-26T02:25:16;13.10;99.90
7762;DHT22;3925;48.636;9.516;2022-10-26T02:27:49;13.10;99.90
7762;DHT22;3925;48.636;9.516;2022-10-26T02:30:18;13.00;99.90
7762;DHT22;3925;48.636;9.516;2022-10-26T02:32:49;12.90;99.90
7762;DHT22;3925;48.636;9.516;2022-10-26T02:35:19;12.80;99.90
7762;DHT22;3925;48.636;9.516;2022-10-26T02:37:48;12.90;99.90
7762;DHT22;3925;48.636;9.516;2022-10-26T02:40:19;12.90;99.90
7762;DHT22;3925;48.636;9.516;2022-10-26T02:42:46;12.90;99.90
7762;DHT22;3925;48.636;9.516;2022-10-26T02:45:18;12.90;99.90
7762;DHT22;3925;48.636;9.516;2022-10-26T02:47:48;12.90;99.90
7762;DHT22;3925;48.636;9.516;2022-10-26T02:50:15;12.80;99.90
7762;DHT22;3925;48.636;9.516;2022-10-26T02:52:48;12.90;99.90
7762;DHT22;3925;48.636;9.516;2022-10-26T02:55:20;13.00;99.90
7762;DHT22;3925;48.636;9.516;2022-10-26T02:57:50;13.00;99.90
7762;DHT22;3925;48.636;9.516;2022-10-26T03:00:19;12.80;99.90
7762;DHT22;3925;48.636;9.516;2022-10-26T03:02:54;12.80;99.90
7762;DHT22;3925;48.636;9.516;2022-10-26T03:05:24;12.70;99.90
7762;DHT22;3925;48.636;9.516;2022-10-26T03:07:51;12.70;99.90
7762;DHT22;3925;48.636;9.516;2022-10-26T03:10:19;12.70;99.90
7762;DHT22;3925;48.636;9.516;2022-10-26T03:12:46;12.70;99.90
7762;DHT22;3925;48.636;9.516;2022-10-26T03:15:13;12.60;99.90
7762;DHT22;3925;48.636;9.516;2022-10-26T03:17:40;12.60;99.90
7762;DHT22;3925;48.636;9.516;2022-10-26T03:20:11;12.60;99.90
7762;DHT22;3925;48.636;9.516;2022-10-26T03:22:38;12.60;99.90
7762;DHT22;3925;48.636;9.516;2022-10-26T03:25:06;12.70;99.90
7762;DHT22;3925;48.636;9.516;2022-10-26T03:27:32;12.60;99.90
7762;DHT22;3925;48.636;9.516;2022-10-26T03:29:59;12.60;99.90
7762;DHT22;3925;48.636;9.516;2022-10-26T03:32:26;12.70;99.90
7762;DHT22;3925;48.636;9.516;2022-10-26T03:34:53;12.70;99.90
7762;DHT22;3925;48.636;9.516;2022-10-26T03:37:21;12.80;99.90
7762;DHT22;3925;48.636;9.516;2022-10-26T03:39:48;12.60;99.90
7762;DHT22;3925;48.636;9.516;2022-10-26T03:42:15;12.80;99.90
7762;DHT22;3925;48.636;9.516;2022-10-26T03:44:42;12.90;99.90
7762;DHT22;3925;48.636;9.516;2022-10-26T03:47:09;13.00;99.90
7762;DHT22;3925;48.636;9.516;2022-10-26T03:49:35;13.00;99.90
7762;DHT22;3925;48.636;9.516;2022-10-26T03:52:02;12.90;99.90
7762;DHT22;3925;48.636;9.516;2022-10-26T03:54:31;12.80;99.90
7762;DHT22;3925;48.636;9.516;2022-10-26T03:56:57;12.80;99.90
7762;DHT22;3925;48.636;9.516;2022-10-26T03:59:24;12.90;99.90
7762;DHT22;3925;48.636;9.516;2022-10-26T04:01:51;12.90;99.90
7762;DHT22;3925;48.636;9.516;2022-10-26T04:04:18;12.80;99.90
7762;DHT22;3925;48.636;9.516;2022-10-26T04:06:45;12.80;99.90
7762;DHT22;3925;48.636;9.516;2022-10-26T04:09:11;12.60;99.90
7762;DHT22;3925;48.636;9.516;2022-10-26T04:11:40;12.70;99.90
7762;DHT22;3925;48.636;9.516;2022-10-26T04:14:06;12.80;99.90
7762;DHT22;3925;48.636;9.516;2022-10-26T04:16:33;12.80;99.90
7762;DHT22;3925;48.636;9.516;2022-10-26T04:19:00;12.90;99.90
7762;DHT22;3925;48.636;9.516;2022-10-26T04:21:27;12.90;99.90
7762;DHT22;3925;48.636;9.516;2022-10-26T04:23:54;12.80;99.90
7762;DHT22;3925;48.636;9.516;2022-10-26T04:26:21;12.70;99.90
7762;DHT22;3925;48.636;9.516;2022-10-26T04:28:49;12.90;99.90
7762;DHT22;3925;48.636;9.516;2022-10-26T04:31:16;12.70;99.90
7762;DHT22;3925;48.636;9.516;2022-10-26T04:33:43;12.60;99.90
7762;DHT22;3925;48.636;9.516;2022-10-26T04:36:09;12.70;99.90
7762;DHT22;3925;48.636;9.516;2022-10-26T04:38:36;12.70;99.90
7762;DHT22;3925;48.636;9.516;2022-10-26T04:41:03;12.80;99.90
7762;DHT22;3925;48.636;9.516;2022-10-26T04:43:30;12.80;99.90
7762;DHT22;3925;48.636;9.516;2022-10-26T04:45:58;12.70;99.90
7762;DHT22;3925;48.636;9.516;2022-10-26T04:48:25;12.80;99.90
7762;DHT22;3925;48.636;9.516;2022-10-26T04:50:52;12.80;99.90
7762;DHT22;3925;48.636;9.516;2022-10-26T04:53:19;12.80;99.90
7762;DHT22;3925;48.636;9.516;2022-10-26T04:55:45;12.80;99.90
7762;DHT22;3925;48.636;9.516;2022-10-26T04:58:12;12.60;99.90
7762;DHT22;3925;48.636;9.516;2022-10-26T05:00:39;12.60;99.90
7762;DHT22;3925;48.636;9.516;2022-10-26T05:03:08;12.50;99.90
7762;DHT22;3925;48.636;9.516;2022-10-26T05:05:35;12.40;99.90
7762;DHT22;3925;48.636;9.516;2022-10-26T05:08:03;12.40;99.90
7762;DHT22;3925;48.636;9.516;2022-10-26T05:10:30;12.50;99.90
7762;DHT22;3925;48.636;9.516;2022-10-26T05:12:58;12.40;99.90
7762;DHT22;3925;48.636;9.516;2022-10-26T05:15:25;12.30;99.90
7762;DHT22;3925;48.636;9.516;2022-10-26T05:17:56;12.40;99.90
7762;DHT22;3925;48.636;9.516;2022-10-26T05:20:25;12.50;99.90
7762;DHT22;3925;48.636;9.516;2022-10-26T05:22:54;12.70;99.90
7762;DHT22;3925;48.636;9.516;2022-10-26T05:25:21;12.70;99.90
7762;DHT22;3925;48.636;9.516;2022-10-26T05:27:48;12.70;99.90
7762;DHT22;3925;48.636;9.516;2022-10-26T05:30:15;12.70;99.90
7762;DHT22;3925;48.636;9.516;2022-10-26T05:32:42;12.70;99.90
7762;DHT22;3925;48.636;9.516;2022-10-26T05:35:09;12.80;99.90
7762;DHT22;3925;48.636;9.516;2022-10-26T05:37:37;12.80;99.90
7762;DHT22;3925;48.636;9.516;2022-10-26T05:40:05;12.90;99.90
7762;DHT22;3925;48.636;9.516;2022-10-26T05:42:32;13.00;99.90
7762;DHT22;3925;48.636;9.516;2022-10-26T05:44:59;12.90;99.90
7762;DHT22;3925;48.636;9.516;2022-10-26T05:47:25;12.90;99.90
7762;DHT22;3925;48.636;9.516;2022-10-26T05:49:52;13.00;99.90
7762;DHT22;3925;48.636;9.516;2022-10-26T05:52:19;13.00;99.90
7762;DHT22;3925;48.636;9.516;2022-10-26T05:54:47;13.00;99.90
7762;DHT22;3925;48.636;9.516;2022-10-26T05:57:15;13.00;99.90
7762;DHT22;3925;48.636;9.516;2022-10-26T05:59:42;13.00;99.90
7762;DHT22;3925;48.636;9.516;2022-10-26T06:02:13;13.00;99.90
7762;DHT22;3925;48.636;9.516;2022-10-26T06:04:44;12.90;99.90
7762;DHT22;3925;48.636;9.516;2022-10-26T06:07:14;12.90;99.90
7762;DHT22;3925;48.636;9.516;2022-10-26T06:09:42;13.00;99.90
7762;DHT22;3925;48.636;9.516;2022-10-26T06:12:13;13.00;99.90
7762;DHT22;3925;48.636;9.516;2022-10-26T06:14:41;13.10;99.90
7762;DHT22;3925;48.636;9.516;2022-10-26T06:17:21;13.20;99.90
7762;DHT22;3925;48.636;9.516;2022-10-26T06:20:09;13.30;99.90
7762;DHT22;3925;48.636;9.516;2022-10-26T06:22:45;13.40;99.90
7762;DHT22;3925;48.636;9.516;2022-10-26T06:25:22;13.60;99.90
7762;DHT22;3925;48.636;9.516;2022-10-26T06:27:59;13.70;99.90
7762;DHT22;3925;48.636;9.516;2022-10-26T06:30:26;13.90;99.90
7762;DHT22;3925;48.636;9.516;2022-10-26T06:32:53;14.00;99.90
7762;DHT22;3925;48.636;9.516;2022-10-26T06:35:26;14.10;99.90
7762;DHT22;3925;48.636;9.516;2022-10-26T06:37:59;14.20;99.90
7762;DHT22;3925;48.636;9.516;2022-10-26T06:40:29;14.30;99.90
7762;DHT22;3925;48.636;9.516;2022-10-26T06:42:59;14.40;99.90
7762;DHT22;3925;48.636;9.516;2022-10-26T06:45:26;14.50;99.90
7762;DHT22;3925;48.636;9.516;2022-10-26T06:47:58;14.70;99.90
7762;DHT22;3925;48.636;9.516;2022-10-26T06:50:31;14.80;99.90
7762;DHT22;3925;48.636;9.516;2022-10-26T06:53:08;15.00;99.90
7762;DHT22;3925;48.636;9.516;2022-10-26T06:55:41;15.00;99.90
7762;DHT22;3925;48.636;9.516;2022-10-26T06:58:12;15.00;99.90
7762;DHT22;3925;48.636;9.516;2022-10-26T07:00:43;15.00;99.90
7762;DHT22;3925;48.636;9.516;2022-10-26T07:03:10;15.00;99.90
7762;DHT22;3925;48.636;9.516;2022-10-26T07:05:37;15.00;99.90
7762;DHT22;3925;48.636;9.516;2022-10-26T07:08:04;14.90;99.90
7762;DHT22;3925;48.636;9.516;2022-10-26T07:10:31;14.70;99.90
7762;DHT22;3925;48.636;9.516;2022-10-26T07:12:59;14.70;99.90
7762;DHT22;3925;48.636;9.516;2022-10-26T07:15:27;14.70;99.90
7762;DHT22;3925;48.636;9.516;2022-10-26T07:17:54;14.60;99.90
7762;DHT22;3925;48.636;9.516;2022-10-26T07:20:21;14.50;99.90
7762;DHT22;3925;48.636;9.516;2022-10-26T07:22:51;14.30;99.90
7762;DHT22;3925;48.636;9.516;2022-10-26T07:25:19;14.20;99.90
7762;DHT22;3925;48.636;9.516;2022-10-26T07:27:46;14.30;99.90
7762;DHT22;3925;48.636;9.516;2022-10-26T07:30:13;14.30;99.90
7762;DHT22;3925;48.636;9.516;2022-10-26T07:32:41;14.30;99.90
7762;DHT22;3925;48.636;9.516;2022-10-26T07:35:09;14.30;99.90
7762;DHT22;3925;48.636;9.516;2022-10-26T07:37:36;14.30;99.90
7762;DHT22;3925;48.636;9.516;2022-10-26T07:40:04;14.40;99.90
7762;DHT22;3925;48.636;9.516;2022-10-26T07:42:31;14.50;99.90
7762;DHT22;3925;48.636;9.516;2022-10-26T07:44:58;14.50;99.90
7762;DHT22;3925;48.636;9.516;2022-10-26T07:47:24;14.60;99.90
7762;DHT22;3925;48.636;9.516;2022-10-26T07:49:53;14.60;99.90
7762;DHT22;3925;48.636;9.516;2022-10-26T07:52:19;14.60;99.90
7762;DHT22;3925;48.636;9.516;2022-10-26T07:54:46;14.60;99.90
7762;DHT22;3925;48.636;9.516;2022-10-26T07:57:15;14.70;99.90
7762;DHT22;3925;48.636;9.516;2022-10-26T07:59:41;14.80;99.90
7762;DHT22;3925;48.636;9.516;2022-10-26T08:02:08;14.90;99.90
7762;DHT22;3925;48.636;9.516;2022-10-26T08:04:35;15.10;99.90
7762;DHT22;3925;48.636;9.516;2022-10-26T08:07:03;15.30;99.90
7762;DHT22;3925;48.636;9.516;2022-10-26T08:09:30;15.40;99.90
7762;DHT22;3925;48.636;9.516;2022-10-26T08:11:57;15.60;99.90
7762;DHT22;3925;48.636;9.516;2022-10-26T08:14:24;15.80;99.90
7762;DHT22;3925;48.636;9.516;2022-10-26T08:16:51;15.90;99.90
7762;DHT22;3925;48.636;9.516;2022-10-26T08:19:18;15.70;99.90
7762;DHT22;3925;48.636;9.516;2022-10-26T08:21:45;15.90;99.90
7762;DHT22;3925;48.636;9.516;2022-10-26T08:24:13;16.10;99.90
7762;DHT22;3925;48.636;9.516;2022-10-26T08:26:40;16.20;99.90
7762;DHT22;3925;48.636;9.516;2022-10-26T08:29:07;16.20;99.90
7762;DHT22;3925;48.636;9.516;2022-10-26T08:31:34;16.10;99.90
7762;DHT22;3925;48.636;9.516;2022-10-26T08:34:01;16.30;99.90
7762;DHT22;3925;48.636;9.516;2022-10-26T08:36:28;16.40;99.90
7762;DHT22;3925;48.636;9.516;2022-10-26T08:38:55;16.40;99.90
7762;DHT22;3925;48.636;9.516;2022-10-26T08:41:33;16.40;99.90
7762;DHT22;3925;48.636;9.516;2022-10-26T08:44:07;16.40;99.90
7762;DHT22;3925;48.636;9.516;2022-10-26T08:46:40;16.40;99.90
7762;DHT22;3925;48.636;9.516;2022-10-26T08:49:17;16.40;99.90
7762;DHT22;3925;48.636;9.516;2022-10-26T08:51:46;16.30;99.90
7762;DHT22;3925;48.636;9.516;2022-10-26T08:54:20;16.40;99.90
7762;DHT22;3925;48.636;9.516;2022-10-26T08:56:51;16.50;99.90
7762;DHT22;3925;48.636;9.516;2022-10-26T08:59:27;16.50;99.90
7762;DHT22;3925;48.636;9.516;2022-10-26T09:01:55;16.60;99.90
7762;DHT22;3925;48.636;9.516;2022-10-26T09:04:27;16.60;99.90
7762;DHT22;3925;48.636;9.516;2022-10-26T09:07:01;16.50;99.90
7762;DHT22;3925;48.636;9.516;2022-10-26T09:09:38;16.70;99.90
7762;DHT22;3925;48.636;9.516;2022-10-26T09:12:15;16.90;99.90
7762;DHT22;3925;48.636;9.516;2022-10-26T09:14:54;16.70;99.90
7762;DHT22;3925;48.636;9.516;2022-10-26T09:17:34;16.90;99.90
7762;DHT22;3925;48.636;9.516;2022-10-26T09:20:16;17.00;99.90
7762;DHT22;3925;48.636;9.516;2022-10-26T09:22:56;17.40;99.90
7762;DHT22;3925;48.636;9.516;2022-10-26T09:25:28;17.80;99.90
7762;DHT22;3925;48.636;9.516;2022-10-26T09:28:02;17.80;99.90
7762;DHT22;3925;48.636;9.516;2022-10-26T09:30:29;18.20;99.90
7762;DHT22;3925;48.636;9.516;2022-10-26T09:32:58;18.40;99.90
7762;DHT22;3925;48.636;9.516;2022-10-26T09:35:29;18.70;99.90
7762;DHT22;3925;48.636;9.516;2022-10-26T09:38:01;19.50;99.90
7762;DHT22;3925;48.636;9.516;2022-10-26T09:40:34;20.50;99.90
7762;DHT22;3925;48.636;9.516;2022-10-26T09:43:08;22.30;99.90
7762;DHT22;3925;48.636;9.516;2022-10-26T09:45:37;24.20;99.90
7762;DHT22;3925;48.636;9.516;2022-10-26T09:48:09;25.60;99.90
7762;DHT22;3925;48.636;9.516;2022-10-26T09:50:38;26.90;99.90
7762;DHT22;3925;48.636;9.516;2022-10-26T09:53:05;29.20;95.30
7762;DHT22;3925;48.636;9.516;2022-10-26T09:55:33;31.40;88.20
7762;DHT22;3925;48.636;9.516;2022-10-26T09:58:11;32.00;82.30
7762;DHT22;3925;48.636;9.516;2022-10-26T10:00:41;33.50;75.40
7762;DHT22;3925;48.636;9.516;2022-10-26T10:03:17;34.70;67.30
7762;DHT22;3925;48.636;9.516;2022-10-26T10:05:44;35.70;63.90
7762;DHT22;3925;48.636;9.516;2022-10-26T10:08:16;35.20;61.10
7762;DHT22;3925;48.636;9.516;2022-10-26T10:10:57;34.90;56.80
7762;DHT22;3925;48.636;9.516;2022-10-26T10:13:28;33.90;59.80
7762;DHT22;3925;48.636;9.516;2022-10-26T10:16:00;33.60;58.10
7762;DHT22;3925;48.636;9.516;2022-10-26T10:18:28;34.00;57.00
7762;DHT22;3925;48.636;9.516;2022-10-26T10:20:56;34.10;56.80
7762;DHT22;3925;48.636;9.516;2022-10-26T10:23:29;33.50;57.40
7762;DHT22;3925;48.636;9.516;2022-10-26T10:26:14;32.40;58.90
7762;DHT22;3925;48.636;9.516;2022-10-26T10:28:42;31.30;62.50
7762;DHT22;3925;48.636;9.516;2022-10-26T10:31:25;30.50;62.10
7762;DHT22;3925;48.636;9.516;2022-10-26T10:33:52;28.70;69.30
7762;DHT22;3925;48.636;9.516;2022-10-26T10:36:21;27.30;73.30
7762;DHT22;3925;48.636;9.516;2022-10-26T10:38:50;26.80;78.80
7762;DHT22;3925;48.636;9.516;2022-10-26T10:41:24;26.70;81.40
7762;DHT22;3925;48.636;9.516;2022-10-26T10:43:55;26.50;82.40
7762;DHT22;3925;48.636;9.516;2022-10-26T10:46:25;25.80;82.90
7762;DHT22;3925;48.636;9.516;2022-10-26T10:49:01;25.20;84.20
7762;DHT22;3925;48.636;9.516;2022-10-26T10:51:32;24.60;87.70
7762;DHT22;3925;48.636;9.516;2022-10-26T10:54:02;25.00;90.30
7762;DHT22;3925;48.636;9.516;2022-10-26T10:56:36;26.10;90.50
7762;DHT22;3925;48.636;9.516;2022-10-26T10:59:34;27.20;83.20
7762;DHT22;3925;48.636;9.516;2022-10-26T11:02:46;28.90;78.70
7762;DHT22;3925;48.636;9.516;2022-10-26T11:05:21;30.50;71.90
7762;DHT22;3925;48.636;9.516;2022-10-26T11:07:53;30.70;64.70
7762;DHT22;3925;48.636;9.516;2022-10-26T11:10:23;29.80;69.50
7762;DHT22;3925;48.636;9.516;2022-10-26T11:12:55;30.20;69.80
7762;DHT22;3925;48.636;9.516;2022-10-26T11:15:29;30.20;68.50
7762;DHT22;3925;48.636;9.516;2022-10-26T11:18:01;30.10;69.80
7762;DHT22;3925;48.636;9.516;2022-10-26T11:20:34;30.30;67.90
7762;DHT22;3925;48.636;9.516;2022-10-26T11:23:07;29.50;67.90
7762;DHT22;3925;48.636;9.516;2022-10-26T11:25:40;27.50;72.40
7762;DHT22;3925;48.636;9.516;2022-10-26T11:28:14;26.40;77.30
7762;DHT22;3925;48.636;9.516;2022-10-26T11:30:46;25.20;82.40
7762;DHT22;3925;48.636;9.516;2022-10-26T11:33:18;24.70;88.40
7762;DHT22;3925;48.636;9.516;2022-10-26T11:35:52;24.80;89.40
7762;DHT22;3925;48.636;9.516;2022-10-26T11:38:26;24.80;88.70
7762;DHT22;3925;48.636;9.516;2022-10-26T11:41:00;24.50;88.70
7762;DHT22;3925;48.636;9.516;2022-10-26T11:43:32;24.30;91.40
7762;DHT22;3925;48.636;9.516;2022-10-26T11:46:04;23.80;91.50
7762;DHT22;3925;48.636;9.516;2022-10-26T11:48:36;23.60;91.20
7762;DHT22;3925;48.636;9.516;2022-10-26T11:51:12;23.50;92.30
7762;DHT22;3925;48.636;9.516;2022-10-26T11:53:42;23.30;93.90
7762;DHT22;3925;48.636;9.516;2022-10-26T11:56:13;23.30;93.50
7762;DHT22;3925;48.636;9.516;2022-10-26T11:58:41;23.20;93.80
7762;DHT22;3925;48.636;9.516;2022-10-26T12:01:13;23.50;93.50
7762;DHT22;3925;48.636;9.516;2022-10-26T12:03:42;23.40;93.30
7762;DHT22;3925;48.636;9.516;2022-10-26T12:06:12;23.30;93.60
7762;DHT22;3925;48.636;9.516;2022-10-26T12:08:42;23.50;93.80
7762;DHT22;3925;48.636;9.516;2022-10-26T12:11:17;23.50;94.40
7762;DHT22;3925;48.636;9.516;2022-10-26T12:13:51;23.70;94.80
7762;DHT22;3925;48.636;9.516;2022-10-26T12:16:29;23.90;94.10
7762;DHT22;3925;48.636;9.516;2022-10-26T12:19:01;24.20;93.80
7762;DHT22;3925;48.636;9.516;2022-10-26T12:21:31;24.20;93.40
7762;DHT22;3925;48.636;9.516;2022-10-26T12:23:59;24.40;94.20
7762;DHT22;3925;48.636;9.516;2022-10-26T12:26:51;24.50;93.60
7762;DHT22;3925;48.636;9.516;2022-10-26T12:29:46;24.60;93.10
7762;DHT22;3925;48.636;9.516;2022-10-26T12:35:36;24.30;94.20
7762;DHT22;3925;48.636;9.516;2022-10-26T12:41:25;24.00;94.70
7762;DHT22;3925;48.636;9.516;2022-10-26T12:43:57;24.20;95.80
7762;DHT22;3925;48.636;9.516;2022-10-26T12:46:40;24.10;95.20
7762;DHT22;3925;48.636;9.516;2022-10-26T12:52:20;23.80;95.20
7762;DHT22;3925;48.636;9.516;2022-10-26T12:58:00;23.50;95.20
7762;DHT22;3925;48.636;9.516;2022-10-26T13:00:30;23.60;96.50
7762;DHT22;3925;48.636;9.516;2022-10-26T13:03:11;23.50;96.40
7762;DHT22;3925;48.636;9.516;2022-10-26T13:06:01;23.40;97.30
7762;DHT22;3925;48.636;9.516;2022-10-26T13:08:39;23.20;97.10
7762;DHT22;3925;48.636;9.516;2022-10-26T13:11:15;23.20;97.30
7762;DHT22;3925;48.636;9.516;2022-10-26T13:13:44;23.10;97.30
7762;DHT22;3925;48.636;9.516;2022-10-26T13:16:17;22.80;97.60
7762;DHT22;3925;48.636;9.516;2022-10-26T13:18:45;22.70;97.40
7762;DHT22;3925;48.636;9.516;2022-10-26T13:21:15;22.50;97.20
7762;DHT22;3925;48.636;9.516;2022-10-26T13:23:45;22.60;98.50
7762;DHT22;3925;48.636;9.516;2022-10-26T13:26:15;22.70;98.90
7762;DHT22;3925;48.636;9.516;2022-10-26T13:28:50;22.50;98.20
7762;DHT22;3925;48.636;9.516;2022-10-26T13:31:54;22.70;98.30
7762;DHT22;3925;48.636;9.516;2022-10-26T13:34:26;22.60;98.50
7762;DHT22;3925;48.636;9.516;2022-10-26T13:37:08;22.50;98.50
7762;DHT22;3925;48.636;9.516;2022-10-26T13:39:41;22.50;97.20
7762;DHT22;3925;48.636;9.516;2022-10-26T13:42:13;22.80;97.60
7762;DHT22;3925;48.636;9.516;2022-10-26T13:44:45;22.70;98.50
7762;DHT22;3925;48.636;9.516;2022-10-26T13:47:16;22.90;98.20
7762;DHT22;3925;48.636;9.516;2022-10-26T13:49:51;22.80;97.90
7762;DHT22;3925;48.636;9.516;2022-10-26T13:52:22;22.70;97.50
7762;DHT22;3925;48.636;9.516;2022-10-26T13:54:56;22.30;97.90
7762;DHT22;3925;48.636;9.516;2022-10-26T13:57:29;22.00;97.70
7762;DHT22;3925;48.636;9.516;2022-10-26T13:59:59;21.80;98.80
7762;DHT22;3925;48.636;9.516;2022-10-26T14:02:27;21.60;98.90
7762;DHT22;3925;48.636;9.516;2022-10-26T14:04:59;21.60;99.90
7762;DHT22;3925;48.636;9.516;2022-10-26T14:07:32;21.60;99.80
7762;DHT22;3925;48.636;9.516;2022-10-26T14:10:02;21.50;99.80
7762;DHT22;3925;48.636;9.516;2022-10-26T14:12:29;21.50;99.90
7762;DHT22;3925;48.636;9.516;2022-10-26T14:15:02;21.40;99.90
7762;DHT22;3925;48.636;9.516;2022-10-26T14:17:31;21.30;99.90
7762;DHT22;3925;48.636;9.516;2022-10-26T14:19:58;21.30;99.90
7762;DHT22;3925;48.636;9.516;2022-10-26T14:22:27;21.20;99.90
7762;DHT22;3925;48.636;9.516;2022-10-26T14:24:56;21.20;99.90
7762;DHT22;3925;48.636;9.516;2022-10-26T14:27:29;21.10;99.90
7762;DHT22;3925;48.636;9.516;2022-10-26T14:29:57;21.10;99.90
7762;DHT22;3925;48.636;9.516;2022-10-26T14:32:27;21.00;99.90
7762;DHT22;3925;48.636;9.516;2022-10-26T14:34:54;21.00;99.90
7762;DHT22;3925;48.636;9.516;2022-10-26T14:37:29;21.00;99.90
7762;DHT22;3925;48.636;9.516;2022-10-26T14:39:58;21.00;99.90
7762;DHT22;3925;48.636;9.516;2022-10-26T14:42:30;21.00;99.90
7762;DHT22;3925;48.636;9.516;2022-10-26T14:44:58;21.00;99.90
7762;DHT22;3925;48.636;9.516;2022-10-26T14:47:27;21.00;99.90
7762;DHT22;3925;48.636;9.516;2022-10-26T14:49:55;21.00;99.90
7762;DHT22;3925;48.636;9.516;2022-10-26T14:52:25;21.00;99.90
7762;DHT22;3925;48.636;9.516;2022-10-26T14:54:57;21.00;99.90
7762;DHT22;3925;48.636;9.516;2022-10-26T14:57:34;20.90;99.90
7762;DHT22;3925;48.636;9.516;2022-10-26T15:00:04;20.80;99.90
7762;DHT22;3925;48.636;9.516;2022-10-26T15:02:36;20.60;99.90
7762;DHT22;3925;48.636;9.516;2022-10-26T15:05:17;20.50;99.90
7762;DHT22;3925;48.636;9.516;2022-10-26T15:07:44;20.40;99.90
7762;DHT22;3925;48.636;9.516;2022-10-26T15:10:44;20.30;99.90
7762;DHT22;3925;48.636;9.516;2022-10-26T15:13:20;20.30;99.90
7762;DHT22;3925;48.636;9.516;2022-10-26T15:15:48;20.20;99.90
7762;DHT22;3925;48.636;9.516;2022-10-26T15:18:19;20.30;99.90
7762;DHT22;3925;48.636;9.516;2022-10-26T15:20:47;20.20;99.90
7762;DHT22;3925;48.636;9.516;2022-10-26T15:23:16;20.20;99.90
7762;DHT22;3925;48.636;9.516;2022-10-26T15:25:50;20.20;99.90
7762;DHT22;3925;48.636;9.516;2022-10-26T15:28:23;20.20;99.90
7762;DHT22;3925;48.636;9.516;2022-10-26T15:31:01;20.10;99.90
7762;DHT22;3925;48.636;9.516;2022-10-26T15:33:29;20.00;99.90
7762;DHT22;3925;48.636;9.516;2022-10-26T15:36:13;20.00;99.90
7762;DHT22;3925;48.636;9.516;2022-10-26T15:38:40;20.00;99.90
7762;DHT22;3925;48.636;9.516;2022-10-26T15:41:14;20.00;99.90
7762;DHT22;3925;48.636;9.516;2022-10-26T15:43:46;19.90;99.90
7762;DHT22;3925;48.636;9.516;2022-10-26T15:46:13;19.80;99.90
7762;DHT22;3925;48.636;9.516;2022-10-26T15:48:40;19.70;99.90
7762;DHT22;3925;48.636;9.516;2022-10-26T15:51:10;19.70;99.90
7762;DHT22;3925;48.636;9.516;2022-10-26T15:53:38;19.60;99.90
7762;DHT22;3925;48.636;9.516;2022-10-26T15:56:12;19.50;99.90
7762;DHT22;3925;48.636;9.516;2022-10-26T15:58:40;19.40;99.90
7762;DHT22;3925;48.636;9.516;2022-10-26T16:01:13;19.30;99.90
7762;DHT22;3925;48.636;9.516;2022-10-26T16:03:41;19.10;99.90
7762;DHT22;3925;48.636;9.516;2022-10-26T16:06:15;19.00;99.90
7762;DHT22;3925;48.636;9.516;2022-10-26T16:08:46;18.90;99.90
7762;DHT22;3925;48.636;9.516;2022-10-26T16:11:14;18.80;99.90
7762;DHT22;3925;48.636;9.516;2022-10-26T16:13:41;18.80;99.90
7762;DHT22;3925;48.636;9.516;2022-10-26T16:16:12;18.70;99.90
7762;DHT22;3925;48.636;9.516;2022-10-26T16:18:39;18.60;99.90
7762;DHT22;3925;48.636;9.516;2022-10-26T16:21:10;18.50;99.90
7762;DHT22;3925;48.636;9.516;2022-10-26T16:23:38;18.50;99.90
7762;DHT22;3925;48.636;9.516;2022-10-26T16:26:05;18.30;99.90
7762;DHT22;3925;48.636;9.516;2022-10-26T16:28:32;18.20;99.90
7762;DHT22;3925;48.636;9.516;2022-10-26T16:31:00;18.10;99.90
7762;DHT22;3925;48.636;9.516;2022-10-26T16:33:28;18.00;99.90
7762;DHT22;3925;48.636;9.516;2022-10-26T16:35:55;17.90;99.90
7762;DHT22;3925;48.636;9.516;2022-10-26T16:38:23;17.80;99.90
7762;DHT22;3925;48.636;9.516;2022-10-26T16:40:59;17.70;99.90